Terminal Aerodrome Forecast
Issued by NWS Shreveport, LA

Home | Current Version | Previous Version | Text Only | Print | Product List | Glossary On
Versions: 1 2 3 4 5 6 7 8 9 10 11 12 13 14 15 16 17 18 19 20
000
FTUS44 KSHV 261911 AAA
TAFGGG
TAF AMD
KGGG 261911Z 2619/2718 35014G22KT P6SM BKN025
     FM262200 35015G25KT P6SM SCT040
     FM270100 VRB03KT P6SM SKC
     FM271500 26007KT P6SM SKC=

USA.gov is the U.S. government's official web portal to all federal, state and local government web resources and services.